createdAt,value
2022-12-28T00:01:19.613Z,100.00
2022-12-28T00:03:48.209Z,100.00
2022-12-28T00:06:16.519Z,100.00
2022-12-28T00:08:44.215Z,100.00
2022-12-28T00:11:20.561Z,100.00
2022-12-28T00:13:57.579Z,100.00
2022-12-28T00:16:28.171Z,100.00
2022-12-28T00:18:56.264Z,100.00
2022-12-28T00:21:24.051Z,100.00
2022-12-28T00:23:52.527Z,100.00
2022-12-28T00:26:20.958Z,100.00
2022-12-28T00:28:48.871Z,100.00
2022-12-28T00:31:18.123Z,100.00
2022-12-28T00:33:47.012Z,100.00
2022-12-28T00:36:15.496Z,100.00
2022-12-28T00:38:43.987Z,100.00
2022-12-28T00:41:12.292Z,100.00
2022-12-28T00:43:43.238Z,100.00
2022-12-28T00:46:11.592Z,100.00
2022-12-28T00:48:40.608Z,100.00
2022-12-28T00:51:12.006Z,100.00
2022-12-28T00:53:39.856Z,100.00
2022-12-28T00:56:09.176Z,100.00
2022-12-28T00:58:37.145Z,100.00
2022-12-28T01:01:05.831Z,100.00
2022-12-28T01:03:33.663Z,100.00
2022-12-28T01:06:06.180Z,100.00
2022-12-28T01:08:34.041Z,100.00
2022-12-28T01:11:01.724Z,100.00
2022-12-28T01:13:29.421Z,100.00
2022-12-28T01:15:57.097Z,100.00
2022-12-28T01:18:25.004Z,100.00
2022-12-28T01:20:52.692Z,100.00
2022-12-28T01:23:21.692Z,100.00
2022-12-28T01:25:49.524Z,100.00
2022-12-28T01:28:17.377Z,100.00
2022-12-28T01:30:45.141Z,100.00
2022-12-28T01:33:12.779Z,100.00
2022-12-28T01:35:40.441Z,100.00
2022-12-28T01:38:08.116Z,100.00
2022-12-28T01:40:39.104Z,100.00
2022-12-28T01:43:13.236Z,100.00
2022-12-28T01:45:42.254Z,100.00
2022-12-28T01:48:19.347Z,100.00
2022-12-28T01:50:47.170Z,100.00
2022-12-28T01:53:15.012Z,100.00
2022-12-28T01:55:44.539Z,100.00
2022-12-28T01:58:16.263Z,100.00
2022-12-28T02:00:43.938Z,100.00
2022-12-28T02:03:14.966Z,100.00
2022-12-28T02:05:46.602Z,100.00
2022-12-28T02:08:19.771Z,100.00
2022-12-28T02:10:48.846Z,100.00
2022-12-28T02:13:18.282Z,100.00
2022-12-28T02:15:47.179Z,100.00
2022-12-28T02:18:16.939Z,100.00
2022-12-28T02:21:11.281Z,100.00
2022-12-28T02:23:53.266Z,100.00
2022-12-28T02:26:39.584Z,100.00
2022-12-28T02:29:35.784Z,100.00
2022-12-28T02:32:17.899Z,100.00
2022-12-28T02:34:50.883Z,100.00
2022-12-28T02:37:23.929Z,100.00
2022-12-28T02:39:57.286Z,100.00
2022-12-28T02:42:27.300Z,100.00
2022-12-28T02:45:14.181Z,100.00
2022-12-28T02:48:02.515Z,100.00
2022-12-28T02:50:45.251Z,100.00
2022-12-28T02:53:32.704Z,100.00
2022-12-28T02:56:16.529Z,100.00
2022-12-28T02:58:58.998Z,100.00
2022-12-28T03:01:43.129Z,100.00
2022-12-28T03:04:19.820Z,100.00
2022-12-28T03:07:17.123Z,100.00
2022-12-28T03:09:51.978Z,100.00
2022-12-28T03:12:26.595Z,100.00
2022-12-28T03:15:05.664Z,100.00
2022-12-28T03:17:55.152Z,100.00
2022-12-28T03:20:45.732Z,100.00
2022-12-28T03:23:35.328Z,100.00
2022-12-28T03:26:25.799Z,100.00
2022-12-28T03:29:13.652Z,100.00
2022-12-28T03:31:44.338Z,100.00
2022-12-28T03:34:16.637Z,100.00
2022-12-28T03:36:56.128Z,100.00
2022-12-28T03:39:35.560Z,100.00
2022-12-28T03:42:30.433Z,100.00
2022-12-28T03:45:03.289Z,100.00
2022-12-28T03:47:34.639Z,100.00
2022-12-28T03:50:04.247Z,100.00
2022-12-28T03:52:33.427Z,100.00
2022-12-28T03:55:06.964Z,100.00
2022-12-28T03:57:34.805Z,100.00
2022-12-28T04:00:06.180Z,100.00
2022-12-28T04:02:43.691Z,100.00
2022-12-28T04:05:13.510Z,100.00
2022-12-28T04:07:42.186Z,100.00
2022-12-28T04:10:10.601Z,100.00
2022-12-28T04:12:38.444Z,100.00
2022-12-28T04:15:22.239Z,100.00
2022-12-28T04:17:49.983Z,100.00
2022-12-28T04:20:19.650Z,100.00
2022-12-28T04:22:47.524Z,100.00
2022-12-28T04:25:15.452Z,100.00
2022-12-28T04:27:44.325Z,100.00
2022-12-28T04:30:31.131Z,100.00
2022-12-28T04:32:58.843Z,100.00
2022-12-28T04:35:28.025Z,100.00
2022-12-28T04:37:57.880Z,100.00
2022-12-28T04:40:25.597Z,100.00
2022-12-28T04:42:53.279Z,100.00
2022-12-28T04:45:22.406Z,100.00
2022-12-28T04:47:50.256Z,100.00
2022-12-28T04:50:18.069Z,100.00
2022-12-28T04:52:47.119Z,100.00
2022-12-28T04:55:32.470Z,100.00
2022-12-28T04:58:01.994Z,100.00
2022-12-28T05:00:29.704Z,100.00
2022-12-28T05:02:59.618Z,100.00
2022-12-28T05:05:27.359Z,100.00
2022-12-28T05:07:56.443Z,100.00
2022-12-28T05:10:24.351Z,100.00
2022-12-28T05:12:52.049Z,100.00
2022-12-28T05:15:19.780Z,100.00
2022-12-28T05:17:47.462Z,100.00
2022-12-28T05:20:16.054Z,100.00
2022-12-28T05:22:43.708Z,100.00
2022-12-28T05:25:12.772Z,100.00
2022-12-28T05:27:40.466Z,100.00
2022-12-28T05:30:09.567Z,100.00
2022-12-28T05:32:37.264Z,100.00
2022-12-28T05:35:05.307Z,100.00
2022-12-28T05:37:32.981Z,100.00
2022-12-28T05:40:01.655Z,100.00
2022-12-28T05:42:30.747Z,100.00
2022-12-28T05:44:58.440Z,100.00
2022-12-28T05:47:26.111Z,100.00
2022-12-28T05:49:53.849Z,100.00
2022-12-28T05:52:21.536Z,100.00
2022-12-28T05:54:49.269Z,100.00
2022-12-28T05:57:17.007Z,100.00
2022-12-28T05:59:46.015Z,100.00
2022-12-28T06:02:13.824Z,100.00
2022-12-28T06:04:41.516Z,100.00
2022-12-28T06:07:09.126Z,100.00
2022-12-28T06:09:36.844Z,100.00
2022-12-28T06:12:06.903Z,100.00
2022-12-28T06:14:34.715Z,100.00
2022-12-28T06:17:03.816Z,100.00
2022-12-28T06:19:31.521Z,100.00
2022-12-28T06:21:59.261Z,100.00
2022-12-28T06:24:26.984Z,100.00
2022-12-28T06:26:54.653Z,100.00
2022-12-28T06:29:22.350Z,100.00
2022-12-28T06:31:51.327Z,100.00
2022-12-28T06:34:20.458Z,100.00
2022-12-28T06:36:52.512Z,100.00
2022-12-28T06:39:20.197Z,100.00
2022-12-28T06:41:47.815Z,100.00
2022-12-28T06:44:15.548Z,100.00
2022-12-28T06:46:43.315Z,100.00
2022-12-28T06:49:11.040Z,100.00
2022-12-28T06:51:41.837Z,100.00
2022-12-28T06:54:10.279Z,100.00
2022-12-28T06:56:38.309Z,100.00
2022-12-28T06:59:06.613Z,100.00
2022-12-28T07:01:36.570Z,100.00
2022-12-28T07:04:06.282Z,100.00
2022-12-28T07:06:37.666Z,100.00
2022-12-28T07:09:08.735Z,100.00
2022-12-28T07:11:37.196Z,100.00
2022-12-28T07:14:05.166Z,100.00
2022-12-28T07:19:01.295Z,100.00
2022-12-28T07:21:31.812Z,100.00
2022-12-28T07:24:00.093Z,100.00
2022-12-28T07:26:31.329Z,100.00
2022-12-28T07:29:00.577Z,100.00
2022-12-28T07:31:30.681Z,100.00
2022-12-28T07:34:00.234Z,100.00
2022-12-28T07:36:29.730Z,100.00
2022-12-28T07:38:58.677Z,100.00
2022-12-28T07:41:29.743Z,100.00
2022-12-28T07:43:59.553Z,100.00
2022-12-28T07:46:29.023Z,100.00
2022-12-28T07:48:57.924Z,100.00
2022-12-28T07:51:28.068Z,100.00
2022-12-28T07:53:58.030Z,100.00
2022-12-28T07:56:28.053Z,100.00
2022-12-28T07:58:58.952Z,100.00
2022-12-28T08:01:28.499Z,100.00
2022-12-28T08:03:58.379Z,100.00
2022-12-28T08:06:27.235Z,100.00
2022-12-28T08:08:56.852Z,100.00
2022-12-28T08:11:26.225Z,100.00
2022-12-28T08:13:55.672Z,100.00
2022-12-28T08:16:26.864Z,100.00
2022-12-28T08:18:55.673Z,100.00
2022-12-28T08:21:25.283Z,100.00
2022-12-28T08:23:53.607Z,100.00
2022-12-28T08:26:23.252Z,100.00
2022-12-28T08:28:53.298Z,100.00
2022-12-28T08:31:23.088Z,100.00
2022-12-28T08:33:53.721Z,100.00
2022-12-28T08:36:21.777Z,100.00
2022-12-28T08:38:50.410Z,100.00
2022-12-28T08:41:20.647Z,100.00
2022-12-28T08:43:48.807Z,100.00
2022-12-28T08:46:19.256Z,100.00
2022-12-28T08:48:49.407Z,100.00
2022-12-28T08:51:20.891Z,100.00
2022-12-28T08:53:49.061Z,100.00
2022-12-28T08:56:20.127Z,100.00
2022-12-28T08:58:49.083Z,100.00
2022-12-28T09:01:18.633Z,100.00
2022-12-28T09:03:48.731Z,100.00
2022-12-28T09:06:20.354Z,100.00
2022-12-28T09:09:04.925Z,100.00
2022-12-28T09:11:33.525Z,100.00
2022-12-28T09:14:01.995Z,100.00
2022-12-28T09:16:29.906Z,100.00
2022-12-28T09:18:59.935Z,100.00
2022-12-28T09:21:31.130Z,100.00
2022-12-28T09:23:59.206Z,100.00
2022-12-28T09:26:28.561Z,100.00
2022-12-28T09:28:58.061Z,100.00
2022-12-28T09:31:28.003Z,100.00
2022-12-28T09:36:51.288Z,100.00
2022-12-28T09:39:22.650Z,100.00
2022-12-28T09:41:53.714Z,100.00
2022-12-28T09:44:48.642Z,100.00
2022-12-28T09:47:24.153Z,100.00
2022-12-28T09:50:03.476Z,100.00
2022-12-28T09:52:35.011Z,100.00
2022-12-28T09:55:08.149Z,100.00
2022-12-28T09:57:39.035Z,100.00
2022-12-28T10:00:15.715Z,100.00
2022-12-28T10:02:48.266Z,100.00
2022-12-28T10:05:16.540Z,100.00
2022-12-28T10:07:45.708Z,100.00
2022-12-28T10:10:17.192Z,100.00
2022-12-28T10:12:46.203Z,100.00
2022-12-28T10:15:14.481Z,100.00
2022-12-28T10:17:42.615Z,100.00
2022-12-28T10:20:16.995Z,100.00
2022-12-28T10:22:50.349Z,100.00
2022-12-28T10:25:20.912Z,100.00
2022-12-28T10:27:48.768Z,100.00
2022-12-28T10:30:19.711Z,100.00
2022-12-28T10:32:56.723Z,100.00
2022-12-28T10:35:30.998Z,100.00
2022-12-28T10:38:04.766Z,100.00
2022-12-28T10:40:34.798Z,100.00
2022-12-28T10:43:10.174Z,100.00
2022-12-28T10:45:41.907Z,100.00
2022-12-28T10:48:15.271Z,100.00
2022-12-28T10:50:51.580Z,100.00
2022-12-28T10:53:26.692Z,100.00
2022-12-28T10:56:22.435Z,100.00
2022-12-28T10:58:51.460Z,100.00
2022-12-28T11:01:24.946Z,100.00
2022-12-28T11:04:02.254Z,100.00
2022-12-28T11:06:32.516Z,100.00
2022-12-28T11:09:14.288Z,100.00
2022-12-28T11:11:42.779Z,97.26
2022-12-28T11:14:17.218Z,90.48
2022-12-28T11:16:45.322Z,89.72
2022-12-28T11:19:13.776Z,90.80
2022-12-28T11:21:42.828Z,88.29
2022-12-28T11:24:16.119Z,88.46
2022-12-28T11:26:45.725Z,88.33
2022-12-28T11:29:15.007Z,86.45
2022-12-28T11:31:48.328Z,88.93
2022-12-28T11:34:20.505Z,89.76
2022-12-28T11:36:49.556Z,91.31
2022-12-28T11:39:46.270Z,89.58
2022-12-28T11:42:54.037Z,93.22
2022-12-28T11:45:51.375Z,95.71
2022-12-28T11:48:47.484Z,92.97
2022-12-28T11:51:17.925Z,90.82
2022-12-28T11:53:55.285Z,93.62
2022-12-28T11:56:26.632Z,90.27
2022-12-28T11:59:12.633Z,92.79
2022-12-28T12:01:54.118Z,91.29
2022-12-28T12:04:37.932Z,87.73
2022-12-28T12:07:31.122Z,90.85
2022-12-28T12:10:22.230Z,86.49
2022-12-28T12:12:53.760Z,91.27
2022-12-28T12:15:25.554Z,90.04
2022-12-28T12:18:00.583Z,90.49
2022-12-28T12:20:45.465Z,93.93
2022-12-28T12:23:22.980Z,91.51
2022-12-28T12:25:54.288Z,94.26
2022-12-28T12:28:34.036Z,89.61
2022-12-28T12:31:04.022Z,88.77
2022-12-28T12:33:35.966Z,89.62
2022-12-28T12:36:17.665Z,88.90
2022-12-28T12:39:04.423Z,89.25
2022-12-28T12:41:39.870Z,89.34
2022-12-28T12:44:20.083Z,88.80
2022-12-28T12:47:21.050Z,88.36
2022-12-28T12:50:12.927Z,83.71
2022-12-28T12:52:43.573Z,82.13
2022-12-28T12:55:21.865Z,87.34
2022-12-28T12:57:58.657Z,87.12
2022-12-28T13:00:38.942Z,89.51
2022-12-28T13:03:24.142Z,90.82
2022-12-28T13:05:54.686Z,90.44
2022-12-28T13:08:27.719Z,91.24
2022-12-28T13:10:56.558Z,91.44
2022-12-28T13:13:32.046Z,88.92
2022-12-28T13:16:04.069Z,86.78
2022-12-28T13:18:48.101Z,87.16
2022-12-28T13:21:22.040Z,88.63
2022-12-28T13:23:51.759Z,91.29
2022-12-28T13:26:25.085Z,88.38
2022-12-28T13:28:57.863Z,82.47
2022-12-28T13:31:33.707Z,85.04
2022-12-28T13:34:03.351Z,84.76
2022-12-28T13:36:31.331Z,88.42
2022-12-28T13:39:13.912Z,80.42
2022-12-28T13:41:49.186Z,83.40
2022-12-28T13:44:33.320Z,83.07
2022-12-28T13:47:07.950Z,81.21
2022-12-28T13:49:41.278Z,83.96
2022-12-28T13:52:19.677Z,85.89
2022-12-28T13:54:53.622Z,84.81
2022-12-28T14:00:12.506Z,86.22
2022-12-28T14:02:42.554Z,88.19
2022-12-28T14:05:18.453Z,79.08
2022-12-28T14:07:47.402Z,81.93
2022-12-28T14:10:15.657Z,84.16
2022-12-28T14:12:44.894Z,87.11
2022-12-28T14:15:13.373Z,82.99
2022-12-28T14:17:43.464Z,84.32
2022-12-28T14:20:11.862Z,86.09
2022-12-28T14:22:41.346Z,87.65
2022-12-28T14:25:11.207Z,89.15
2022-12-28T14:27:42.325Z,90.39
2022-12-28T14:30:23.733Z,90.32
2022-12-28T14:32:53.415Z,89.38
2022-12-28T14:35:23.507Z,88.93
2022-12-28T14:37:54.317Z,86.37
2022-12-28T14:40:31.505Z,86.27
2022-12-28T14:43:03.956Z,85.06
2022-12-28T14:46:06.788Z,82.57
2022-12-28T14:48:36.923Z,79.68
2022-12-28T14:51:06.563Z,80.79
2022-12-28T14:53:34.551Z,79.47
2022-12-28T14:56:07.006Z,80.95
2022-12-28T14:58:47.848Z,80.67
2022-12-28T15:01:18.659Z,80.04
2022-12-28T15:03:52.780Z,81.17
2022-12-28T15:06:21.126Z,79.34
2022-12-28T15:08:50.545Z,79.53
2022-12-28T15:11:18.968Z,79.76
2022-12-28T15:13:46.665Z,75.79
2022-12-28T15:16:17.719Z,75.23
2022-12-28T15:18:46.134Z,75.37
2022-12-28T15:21:18.012Z,75.13
2022-12-28T15:23:49.140Z,76.91
2022-12-28T15:26:16.927Z,76.03
2022-12-28T15:28:44.546Z,75.47
2022-12-28T15:31:14.776Z,74.80
2022-12-28T15:33:42.499Z,74.44
2022-12-28T15:36:17.413Z,72.83
2022-12-28T15:38:47.911Z,73.14
2022-12-28T15:41:34.031Z,74.32
2022-12-28T15:44:01.798Z,74.63
2022-12-28T15:46:29.634Z,77.04
2022-12-28T15:48:57.314Z,76.90
2022-12-28T15:51:25.055Z,76.72
2022-12-28T15:53:54.082Z,74.90
2022-12-28T15:56:23.366Z,74.79
2022-12-28T15:58:54.235Z,73.57
2022-12-28T16:01:22.579Z,73.78
2022-12-28T16:03:50.625Z,73.54
2022-12-28T16:06:18.524Z,74.22
2022-12-28T16:08:46.353Z,74.48
2022-12-28T16:11:17.244Z,76.04
2022-12-28T16:13:45.268Z,78.92
2022-12-28T16:16:14.376Z,79.66
2022-12-28T16:18:42.080Z,81.51
2022-12-28T16:21:11.955Z,82.42
2022-12-28T16:23:41.018Z,83.21
2022-12-28T16:26:09.803Z,84.62
2022-12-28T16:28:39.556Z,85.54
2022-12-28T16:31:07.678Z,86.71
2022-12-28T16:33:35.906Z,88.70
2022-12-28T16:36:03.553Z,87.00
2022-12-28T16:38:31.284Z,88.06
2022-12-28T16:40:58.930Z,90.73
2022-12-28T16:43:26.569Z,89.72
2022-12-28T16:45:55.579Z,90.17
2022-12-28T16:48:23.223Z,92.29
2022-12-28T16:50:58.512Z,93.52
2022-12-28T16:53:26.257Z,92.82
2022-12-28T16:55:53.959Z,95.41
2022-12-28T16:58:22.063Z,96.79
2022-12-28T17:00:49.725Z,96.78
2022-12-28T17:03:18.771Z,95.39
2022-12-28T17:05:49.724Z,97.26
2022-12-28T17:08:17.951Z,96.09
2022-12-28T17:10:45.688Z,94.95
2022-12-28T17:13:13.364Z,93.36
2022-12-28T17:15:42.162Z,93.55
2022-12-28T17:18:10.545Z,95.22
2022-12-28T17:20:40.505Z,93.75
2022-12-28T17:23:08.985Z,96.53
2022-12-28T17:25:37.289Z,95.24
2022-12-28T17:28:05.447Z,94.93
2022-12-28T17:30:33.226Z,94.52
2022-12-28T17:33:01.821Z,95.87
2022-12-28T17:35:29.537Z,96.07
2022-12-28T17:37:58.512Z,98.04
2022-12-28T17:40:26.131Z,97.36
2022-12-28T17:42:53.832Z,99.70
2022-12-28T17:45:21.520Z,100.00
2022-12-28T17:47:49.120Z,100.00
2022-12-28T17:50:18.054Z,100.00
2022-12-28T17:52:45.980Z,100.00
2022-12-28T17:55:15.035Z,100.00
2022-12-28T17:57:42.726Z,99.72
2022-12-28T18:00:12.641Z,99.38
2022-12-28T18:02:40.433Z,98.17
2022-12-28T18:05:09.488Z,99.38
2022-12-28T18:07:37.236Z,99.88
2022-12-28T18:10:05.413Z,99.06
2022-12-28T18:12:34.457Z,99.12
2022-12-28T18:15:02.116Z,99.01
2022-12-28T18:17:29.776Z,98.98
2022-12-28T18:19:57.428Z,98.29
2022-12-28T18:22:25.121Z,98.72
2022-12-28T18:24:53.509Z,98.97
2022-12-28T18:27:21.243Z,99.88
2022-12-28T18:29:52.027Z,99.53
2022-12-28T18:32:19.837Z,99.10
2022-12-28T18:34:47.595Z,98.33
2022-12-28T18:37:15.356Z,97.67
2022-12-28T18:39:42.973Z,98.86
2022-12-28T18:42:10.544Z,97.15
2022-12-28T18:44:38.218Z,97.55
2022-12-28T18:47:07.340Z,97.74
2022-12-28T18:49:34.969Z,97.26
2022-12-28T18:52:03.123Z,99.64
2022-12-28T18:54:30.737Z,100.00
2022-12-28T18:56:58.605Z,100.00
2022-12-28T18:59:26.317Z,98.81
2022-12-28T19:02:13.163Z,98.37
2022-12-28T19:04:43.424Z,100.00
2022-12-28T19:07:11.162Z,100.00
2022-12-28T19:09:39.043Z,100.00
2022-12-28T19:12:06.844Z,100.00
2022-12-28T19:14:35.551Z,100.00
2022-12-28T19:17:03.167Z,100.00
2022-12-28T19:19:30.816Z,100.00
2022-12-28T19:21:59.768Z,100.00
2022-12-28T19:24:27.508Z,100.00
2022-12-28T19:26:55.217Z,100.00
2022-12-28T19:29:23.753Z,99.76
2022-12-28T19:31:51.837Z,98.42
2022-12-28T19:34:19.603Z,98.08
2022-12-28T19:36:47.216Z,98.53
2022-12-28T19:39:16.505Z,98.09
2022-12-28T19:41:44.290Z,98.39
2022-12-28T19:44:12.069Z,98.15
2022-12-28T19:46:40.314Z,98.81
2022-12-28T19:49:08.191Z,100.00
2022-12-28T19:51:35.990Z,98.42
2022-12-28T19:54:04.297Z,100.00
2022-12-28T19:56:33.634Z,100.00
2022-12-28T19:59:06.519Z,100.00
2022-12-28T20:01:35.862Z,100.00
2022-12-28T20:04:12.405Z,100.00
2022-12-28T20:06:42.325Z,100.00
2022-12-28T20:09:10.084Z,100.00
2022-12-28T20:11:40.503Z,99.39
2022-12-28T20:14:08.202Z,99.25
2022-12-28T20:16:36.204Z,98.62
2022-12-28T20:19:06.745Z,98.23
2022-12-28T20:21:37.234Z,97.96
2022-12-28T20:24:06.056Z,98.16
2022-12-28T20:26:34.050Z,99.34
2022-12-28T20:29:05.424Z,100.00
2022-12-28T20:31:33.188Z,99.81
2022-12-28T20:34:01.615Z,99.73
2022-12-28T20:36:33.846Z,99.05
2022-12-28T20:39:01.780Z,97.94
2022-12-28T20:41:48.319Z,97.04
2022-12-28T20:44:22.084Z,99.31
2022-12-28T20:46:52.200Z,98.50
2022-12-28T20:49:19.950Z,97.33
2022-12-28T20:51:47.805Z,97.77
2022-12-28T20:54:15.529Z,98.76
2022-12-28T20:56:45.029Z,98.43
2022-12-28T20:59:17.111Z,98.92
2022-12-28T21:01:44.846Z,99.53
2022-12-28T21:04:12.713Z,99.95
2022-12-28T21:06:40.390Z,99.11
2022-12-28T21:09:08.279Z,98.55
2022-12-28T21:11:35.940Z,98.81
2022-12-28T21:14:03.635Z,100.00
2022-12-28T21:16:32.791Z,100.00
2022-12-28T21:19:05.454Z,100.00
2022-12-28T21:21:33.098Z,100.00
2022-12-28T21:24:02.656Z,100.00
2022-12-28T21:26:31.368Z,100.00
2022-12-28T21:29:00.260Z,100.00
2022-12-28T21:31:27.927Z,100.00
2022-12-28T21:33:58.117Z,100.00
2022-12-28T21:36:25.951Z,100.00
2022-12-28T21:38:54.748Z,100.00
2022-12-28T21:41:37.642Z,100.00
2022-12-28T21:44:07.777Z,100.00
2022-12-28T21:46:35.582Z,100.00
2022-12-28T21:49:05.279Z,100.00
2022-12-28T21:51:35.148Z,100.00
2022-12-28T21:54:04.942Z,100.00
2022-12-28T21:56:33.079Z,100.00
2022-12-28T21:59:01.647Z,100.00
2022-12-28T22:01:47.346Z,100.00
2022-12-28T22:04:35.768Z,100.00
2022-12-28T22:07:04.490Z,100.00
2022-12-28T22:09:51.517Z,100.00
2022-12-28T22:12:37.922Z,100.00
2022-12-28T22:15:26.887Z,100.00
2022-12-28T22:17:56.372Z,100.00
2022-12-28T22:20:27.053Z,100.00
2022-12-28T22:22:56.512Z,100.00
2022-12-28T22:25:24.943Z,100.00
2022-12-28T22:27:52.735Z,100.00
2022-12-28T22:30:20.440Z,100.00
2022-12-28T22:32:48.141Z,100.00
2022-12-28T22:35:16.071Z,100.00
2022-12-28T22:37:45.169Z,100.00
2022-12-28T22:40:13.421Z,100.00
2022-12-28T22:42:42.627Z,100.00
2022-12-28T22:45:11.417Z,100.00
2022-12-28T22:47:39.127Z,100.00
2022-12-28T22:50:08.738Z,98.32
2022-12-28T22:52:36.386Z,97.75
2022-12-28T22:55:06.069Z,97.34
2022-12-28T22:57:33.865Z,97.85
2022-12-28T23:00:01.658Z,99.91
2022-12-28T23:02:30.374Z,100.00
2022-12-28T23:04:58.245Z,100.00
2022-12-28T23:07:25.899Z,98.53
2022-12-28T23:09:53.516Z,99.38
2022-12-28T23:12:22.516Z,97.70
2022-12-28T23:15:07.666Z,98.72
2022-12-28T23:17:35.328Z,99.60
2022-12-28T23:20:20.602Z,100.00
2022-12-28T23:23:05.942Z,100.00
2022-12-28T23:25:51.365Z,100.00
2022-12-28T23:28:20.451Z,99.89
2022-12-28T23:30:51.210Z,97.88
2022-12-28T23:33:19.862Z,96.69
2022-12-28T23:35:47.494Z,98.25
2022-12-28T23:38:15.159Z,95.57
2022-12-28T23:40:43.309Z,96.13
2022-12-28T23:43:10.942Z,95.95
2022-12-28T23:45:39.914Z,96.54
2022-12-28T23:48:07.616Z,94.65
2022-12-28T23:50:35.613Z,95.05
2022-12-28T23:53:03.248Z,93.58
2022-12-28T23:55:30.828Z,94.14
2022-12-28T23:57:58.465Z,95.05
